createdAt,value
2022-08-27T00:00:44.952Z,75899.16
2022-08-27T00:03:12.006Z,75901.16
2022-08-27T00:05:39.336Z,75885.25
2022-08-27T00:08:07.852Z,75881.28
2022-08-27T00:10:34.966Z,75887.22
2022-08-27T00:13:01.680Z,75887.22
2022-08-27T00:15:28.871Z,75883.25
2022-08-27T00:17:55.772Z,75895.19
2022-08-27T00:20:26.046Z,75887.22
2022-08-27T00:22:53.551Z,75881.28
2022-08-27T00:25:21.461Z,75873.31
2022-08-27T00:27:48.211Z,75865.38
2022-08-27T00:30:18.521Z,75867.38
2022-08-27T00:32:45.595Z,75877.31
2022-08-27T00:35:14.227Z,75885.25
2022-08-27T00:37:40.807Z,75879.28
2022-08-27T00:40:10.946Z,75863.41
2022-08-27T00:42:37.970Z,75859.41
2022-08-27T00:45:06.829Z,75857.44
2022-08-27T00:47:38.288Z,75847.50
2022-08-27T00:50:10.339Z,75855.44
2022-08-27T00:52:44.551Z,75863.41
2022-08-27T00:55:15.484Z,75861.41
2022-08-27T00:57:43.821Z,75853.47
2022-08-27T01:00:14.405Z,75869.34
2022-08-27T01:02:42.219Z,75873.31
2022-08-27T01:05:12.507Z,75875.31
2022-08-27T01:07:43.136Z,75857.44
2022-08-27T01:10:14.043Z,75849.50
2022-08-27T01:13:53.240Z,75827.63
2022-08-27T01:16:31.173Z,75827.63
2022-08-27T01:18:59.806Z,75823.66
2022-08-27T01:21:39.020Z,75837.56
2022-08-27T01:24:32.893Z,75841.53
2022-08-27T01:27:01.246Z,75845.50
2022-08-27T01:29:28.524Z,75853.47
2022-08-27T01:32:05.571Z,75859.41
2022-08-27T01:34:32.419Z,75857.44
2022-08-27T01:36:59.042Z,75851.47
2022-08-27T01:39:25.613Z,75853.47
2022-08-27T01:41:52.810Z,75859.41
2022-08-27T01:44:21.010Z,75867.38
2022-08-27T01:46:48.038Z,75871.34
2022-08-27T01:49:14.671Z,75875.31
2022-08-27T01:51:41.877Z,75873.31
2022-08-27T01:54:08.423Z,75875.31
2022-08-27T01:56:35.021Z,75871.34
2022-08-27T01:59:01.636Z,75867.38
2022-08-27T02:01:28.579Z,75875.31
2022-08-27T02:03:55.823Z,75887.22
2022-08-27T02:06:22.394Z,75891.22
2022-08-27T02:08:48.966Z,75893.19
2022-08-27T02:11:15.604Z,75891.22
2022-08-27T02:13:42.190Z,75889.22
2022-08-27T02:16:09.133Z,75873.31
2022-08-27T02:18:38.515Z,75861.41
2022-08-27T02:21:15.371Z,75855.44
2022-08-27T02:23:42.705Z,75825.66
2022-08-27T02:26:09.276Z,75831.59
2022-08-27T02:28:36.138Z,75827.63
2022-08-27T02:31:03.302Z,75821.69
2022-08-27T02:33:29.965Z,75821.69
2022-08-27T02:35:56.522Z,75817.69
2022-08-27T02:38:23.583Z,75817.69
2022-08-27T02:40:54.021Z,75801.81
2022-08-27T02:43:25.300Z,75827.63
2022-08-27T02:45:52.310Z,75825.66
2022-08-27T02:48:18.905Z,75829.63
2022-08-27T02:50:45.595Z,75831.59
2022-08-27T02:53:12.526Z,75833.59
2022-08-27T02:55:39.171Z,75831.59
2022-08-27T02:58:07.360Z,75845.50
2022-08-27T03:00:34.147Z,75843.53
2022-08-27T03:03:01.658Z,75833.59
2022-08-27T03:05:28.658Z,75839.56
2022-08-27T03:07:55.336Z,75847.50
2022-08-27T03:10:23.949Z,75849.50
2022-08-27T03:12:50.740Z,75835.59
2022-08-27T03:15:19.720Z,75841.53
2022-08-27T03:18:05.750Z,75833.59
2022-08-27T03:20:33.483Z,75829.63
2022-08-27T03:23:00.869Z,75819.69
2022-08-27T03:25:27.926Z,75817.69
2022-08-27T03:27:54.643Z,75813.72
2022-08-27T03:30:23.307Z,75817.69
2022-08-27T03:32:50.604Z,75813.72
2022-08-27T03:35:17.751Z,75799.81
2022-08-27T03:37:44.313Z,75787.91
2022-08-27T03:40:11.699Z,75819.69
2022-08-27T03:42:41.044Z,75807.75
2022-08-27T03:45:09.558Z,75809.75
2022-08-27T03:47:37.159Z,75813.72
2022-08-27T03:50:06.047Z,75803.78
2022-08-27T03:52:33.700Z,75797.84
2022-08-27T03:55:00.403Z,75797.84
2022-08-27T03:57:27.275Z,75795.84
2022-08-27T03:59:54.458Z,75795.84
2022-08-27T04:02:23.400Z,75795.84
2022-08-27T04:04:50.084Z,75795.84
2022-08-27T04:07:16.695Z,75781.94
2022-08-27T04:09:43.285Z,75789.88
2022-08-27T04:12:09.936Z,75789.88
2022-08-27T04:14:39.989Z,75791.88
2022-08-27T04:17:06.657Z,75772.00
2022-08-27T04:19:34.290Z,75774.00
2022-08-27T04:22:06.493Z,75779.94
2022-08-27T04:24:40.855Z,75764.06
2022-08-27T04:27:07.556Z,75768.03
2022-08-27T04:29:34.296Z,75764.06
2022-08-27T04:32:01.283Z,75768.03
2022-08-27T04:34:27.891Z,75768.03
2022-08-27T04:36:56.839Z,75760.09
2022-08-27T04:39:23.568Z,75764.06
2022-08-27T04:41:51.498Z,75762.06
2022-08-27T04:44:18.214Z,75770.03
2022-08-27T04:46:47.907Z,75774.00
2022-08-27T04:49:17.190Z,75768.03
2022-08-27T04:51:43.860Z,75770.03
2022-08-27T04:54:10.918Z,75775.97
2022-08-27T04:56:38.082Z,75760.09
2022-08-27T04:59:06.786Z,75762.06
2022-08-27T05:01:34.143Z,75760.09
2022-08-27T05:04:01.169Z,75752.13
2022-08-27T05:06:28.468Z,75760.09
2022-08-27T05:08:55.955Z,75748.16
2022-08-27T05:11:24.947Z,75754.13
2022-08-27T05:13:51.593Z,75752.13
2022-08-27T05:16:21.243Z,75738.22
2022-08-27T05:18:50.239Z,75730.28
2022-08-27T05:21:29.232Z,75732.28
2022-08-27T05:23:57.434Z,75734.25
2022-08-27T05:26:24.329Z,75742.19
2022-08-27T05:28:51.488Z,75742.19
2022-08-27T05:31:19.726Z,75736.25
2022-08-27T05:33:47.182Z,75730.28
2022-08-27T05:36:20.859Z,75730.28
2022-08-27T05:38:51.657Z,75728.31
2022-08-27T05:41:25.687Z,75732.28
2022-08-27T05:44:18.446Z,75730.28
2022-08-27T05:46:51.819Z,75714.41
2022-08-27T05:49:18.555Z,75724.31
2022-08-27T05:51:49.245Z,75706.44
2022-08-27T05:54:19.861Z,75716.38
2022-08-27T05:56:47.810Z,75712.41
2022-08-27T05:59:34.736Z,75716.38
2022-08-27T06:02:02.343Z,75716.38
2022-08-27T06:04:29.151Z,75710.41
2022-08-27T06:06:55.991Z,75730.28
2022-08-27T06:09:26.043Z,75730.28
2022-08-27T06:11:57.820Z,75732.28
2022-08-27T06:14:24.746Z,75732.28
2022-08-27T06:16:51.633Z,75730.28
2022-08-27T06:19:18.998Z,75726.31
2022-08-27T06:21:46.191Z,75734.25
2022-08-27T06:24:27.212Z,75736.25
2022-08-27T06:26:54.166Z,75752.13
2022-08-27T06:29:23.666Z,75760.09
2022-08-27T06:31:50.551Z,75770.03
2022-08-27T06:34:17.539Z,75758.09
2022-08-27T06:36:44.241Z,75762.06
2022-08-27T06:39:13.864Z,75760.09
2022-08-27T06:41:42.259Z,75752.13
2022-08-27T06:44:09.239Z,75748.16
2022-08-27T06:46:36.788Z,75738.22
2022-08-27T06:49:03.646Z,75738.22
2022-08-27T06:51:33.956Z,75732.28
2022-08-27T06:54:03.566Z,75736.25
2022-08-27T06:56:31.132Z,75730.28
2022-08-27T06:59:02.104Z,75724.31
2022-08-27T07:01:35.258Z,75722.34
2022-08-27T07:04:05.627Z,75720.34
2022-08-27T07:06:36.687Z,75718.38
2022-08-27T07:09:04.710Z,75722.34
2022-08-27T07:11:34.135Z,75728.31
2022-08-27T07:14:01.159Z,75730.28
2022-08-27T07:16:28.912Z,75726.31
2022-08-27T07:19:03.830Z,75716.38
2022-08-27T07:21:31.575Z,75722.34
2022-08-27T07:23:59.785Z,75716.38
2022-08-27T07:26:28.434Z,75716.38
2022-08-27T07:28:55.201Z,75688.56
2022-08-27T07:31:23.999Z,75696.50
2022-08-27T07:33:53.156Z,75672.66
2022-08-27T07:36:21.710Z,75668.69
2022-08-27T07:38:57.066Z,75652.81
2022-08-27T07:41:30.797Z,75648.84
2022-08-27T07:44:18.903Z,75644.84
2022-08-27T07:46:48.402Z,75640.88
2022-08-27T07:49:17.494Z,75642.88
2022-08-27T07:51:45.173Z,75632.94
2022-08-27T07:54:12.146Z,75638.91
2022-08-27T07:56:38.796Z,75640.88
2022-08-27T07:59:05.352Z,75642.88
2022-08-27T08:01:32.111Z,75646.84
2022-08-27T08:03:59.122Z,75626.97
2022-08-27T08:06:26.312Z,75636.91
2022-08-27T08:08:52.890Z,75636.91
2022-08-27T08:11:20.451Z,75628.97
2022-08-27T08:13:47.842Z,75621.03
2022-08-27T08:16:16.110Z,75609.09
2022-08-27T08:18:43.384Z,75591.22
2022-08-27T08:21:13.216Z,75577.31
2022-08-27T08:23:40.867Z,75567.38
2022-08-27T08:26:08.578Z,75565.41
2022-08-27T08:28:35.302Z,75601.16
2022-08-27T08:31:02.344Z,75601.16
2022-08-27T08:33:31.632Z,75583.28
2022-08-27T08:36:13.292Z,75591.22
2022-08-27T08:38:40.738Z,75601.16
2022-08-27T08:41:35.169Z,75609.09
2022-08-27T08:44:08.770Z,75605.13
2022-08-27T08:46:45.465Z,75587.25
2022-08-27T08:49:30.641Z,75547.50
2022-08-27T08:52:31.151Z,75527.66
2022-08-27T08:55:26.591Z,75551.50
2022-08-27T08:58:21.335Z,75563.41
2022-08-27T09:00:54.497Z,75561.41
2022-08-27T09:03:21.233Z,75547.50
2022-08-27T09:05:55.718Z,75525.66
2022-08-27T09:08:43.347Z,75541.56
2022-08-27T09:11:39.700Z,75559.44
2022-08-27T09:14:14.303Z,75569.38
2022-08-27T09:16:41.026Z,75601.16
2022-08-27T09:19:07.645Z,75589.22
2022-08-27T09:21:44.231Z,75581.28
2022-08-27T09:24:28.055Z,75573.34
2022-08-27T09:26:54.821Z,75569.38
2022-08-27T09:29:27.452Z,75561.41
2022-08-27T09:31:54.124Z,75529.63
2022-08-27T09:34:21.469Z,75533.59
2022-08-27T09:37:08.183Z,75499.84
2022-08-27T09:39:48.659Z,75519.69
2022-08-27T09:42:37.665Z,75537.59
2022-08-27T09:45:14.087Z,75553.47
2022-08-27T09:47:43.675Z,75545.53
2022-08-27T09:50:10.699Z,75527.66
2022-08-27T09:52:55.441Z,75509.78
2022-08-27T09:55:40.766Z,75493.88
2022-08-27T09:58:16.193Z,75477.97
2022-08-27T10:00:42.984Z,75515.72
2022-08-27T10:03:11.105Z,75507.78
2022-08-27T10:05:51.841Z,75489.91
2022-08-27T10:08:22.464Z,75476.00
2022-08-27T10:10:53.579Z,75481.97
2022-08-27T10:13:24.517Z,75462.09
2022-08-27T10:16:12.712Z,75462.09
2022-08-27T10:19:07.182Z,75468.06
2022-08-27T10:21:55.199Z,75474.00
2022-08-27T10:24:54.363Z,75507.78
2022-08-27T10:27:42.642Z,75503.81
2022-08-27T10:30:16.215Z,75493.88
2022-08-27T10:32:43.455Z,75515.72
2022-08-27T10:35:16.715Z,75519.69
2022-08-27T10:37:57.551Z,75503.81
2022-08-27T10:40:27.060Z,75517.72
2022-08-27T10:42:59.862Z,75517.72
2022-08-27T10:45:45.245Z,75529.63
2022-08-27T10:48:38.814Z,75559.44
2022-08-27T10:51:26.278Z,75561.41
2022-08-27T10:54:10.459Z,75599.16
2022-08-27T10:57:14.518Z,75583.28
2022-08-27T10:59:48.077Z,75609.09
2022-08-27T11:02:34.551Z,75593.22
2022-08-27T11:05:06.906Z,75569.38
2022-08-27T11:07:38.290Z,75543.53
2022-08-27T11:10:20.974Z,75497.84
2022-08-27T11:12:51.867Z,75458.13
2022-08-27T11:15:34.615Z,75442.22
2022-08-27T11:18:24.029Z,75424.34
2022-08-27T11:21:13.062Z,75400.50
2022-08-27T11:24:11.803Z,75378.66
2022-08-27T11:26:40.434Z,75356.81
2022-08-27T11:29:29.751Z,75336.94
2022-08-27T11:32:36.299Z,75370.72
2022-08-27T11:35:43.475Z,75380.66
2022-08-27T11:38:13.295Z,75390.56
2022-08-27T11:40:58.223Z,75388.59
2022-08-27T11:43:28.546Z,75408.47
2022-08-27T11:46:02.281Z,75432.28
2022-08-27T11:48:28.746Z,75428.31
2022-08-27T11:51:03.064Z,75450.16
2022-08-27T11:53:34.159Z,75444.22
2022-08-27T11:56:21.389Z,75456.13
2022-08-27T11:58:53.457Z,75440.25
2022-08-27T12:01:27.418Z,75424.34
2022-08-27T12:04:31.166Z,75410.44
2022-08-27T12:07:27.229Z,75432.28
2022-08-27T12:10:20.438Z,75420.38
2022-08-27T12:13:17.673Z,75402.50
2022-08-27T12:16:00.097Z,75384.63
2022-08-27T12:18:51.625Z,75378.66
2022-08-27T12:21:36.562Z,75382.63
2022-08-27T12:24:21.566Z,75430.31
2022-08-27T12:27:01.130Z,75436.28
2022-08-27T12:29:43.962Z,75456.13
2022-08-27T12:32:10.861Z,75428.31
2022-08-27T12:34:49.569Z,75416.41
2022-08-27T12:37:24.718Z,75438.25
2022-08-27T12:39:54.499Z,75456.13
2022-08-27T12:42:22.643Z,75420.38
2022-08-27T12:44:57.712Z,75408.47
2022-08-27T12:47:24.904Z,75402.50
2022-08-27T12:50:01.792Z,75410.44
2022-08-27T12:52:53.069Z,75446.19
2022-08-27T12:55:45.482Z,75452.16
2022-08-27T12:58:30.817Z,75460.09
2022-08-27T13:01:24.375Z,75464.06
2022-08-27T13:03:54.367Z,75462.09
2022-08-27T13:06:30.006Z,75450.16
2022-08-27T13:08:59.441Z,75442.22
2022-08-27T13:11:32.141Z,75438.25
2022-08-27T13:14:20.009Z,75416.41
2022-08-27T13:16:56.569Z,75410.44
2022-08-27T13:19:25.534Z,75384.63
2022-08-27T13:21:54.275Z,75370.72
2022-08-27T13:24:33.898Z,75356.81
2022-08-27T13:27:03.447Z,75338.94
2022-08-27T13:29:30.434Z,75346.88
2022-08-27T13:31:57.567Z,75344.88
2022-08-27T13:34:27.526Z,75305.16
2022-08-27T13:37:07.608Z,75307.16
2022-08-27T13:39:36.721Z,75299.19
2022-08-27T13:42:05.918Z,75297.22
2022-08-27T13:44:37.342Z,75297.22
2022-08-27T13:47:18.503Z,75283.31
2022-08-27T13:49:45.359Z,75277.34
2022-08-27T13:52:14.976Z,75253.50
2022-08-27T13:54:47.445Z,75233.66
2022-08-27T13:57:24.838Z,75199.88
2022-08-27T13:59:51.434Z,75174.06
2022-08-27T14:02:28.702Z,75184.00
2022-08-27T14:05:28.082Z,75160.16
2022-08-27T14:07:57.740Z,75144.25
2022-08-27T14:10:35.641Z,75122.41
2022-08-27T14:13:13.382Z,75130.34
2022-08-27T14:15:44.265Z,75184.00
2022-08-27T14:18:42.101Z,75176.03
2022-08-27T14:21:09.411Z,75223.72
2022-08-27T14:23:36.083Z,75233.66
2022-08-27T14:26:03.392Z,75233.66
2022-08-27T14:28:31.704Z,75225.69
2022-08-27T14:30:58.638Z,75203.84
2022-08-27T14:33:25.376Z,75195.91
2022-08-27T14:35:52.011Z,75164.13
2022-08-27T14:38:22.145Z,75152.22
2022-08-27T14:40:53.245Z,75136.31
2022-08-27T14:43:22.999Z,75104.53
2022-08-27T14:45:50.198Z,75100.56
2022-08-27T14:48:28.633Z,75092.63
2022-08-27T14:50:56.781Z,75068.78
2022-08-27T14:53:24.263Z,75082.69
2022-08-27T14:55:52.045Z,75082.69
2022-08-27T14:58:19.199Z,75056.88
2022-08-27T15:00:45.957Z,75031.03
2022-08-27T15:03:12.872Z,75048.91
2022-08-27T15:05:39.678Z,75038.97
2022-08-27T15:08:08.322Z,75052.88
2022-08-27T15:10:40.050Z,75072.75
2022-08-27T15:13:06.723Z,75070.78
2022-08-27T15:15:33.558Z,75060.84
2022-08-27T15:18:00.219Z,75046.94
2022-08-27T15:20:26.899Z,75025.09
2022-08-27T15:22:53.595Z,75001.25
2022-08-27T15:25:20.988Z,75027.06
2022-08-27T15:27:48.212Z,75068.78
2022-08-27T15:30:17.510Z,75100.56
2022-08-27T15:32:47.422Z,75142.28
2022-08-27T15:35:17.957Z,75182.00
2022-08-27T15:37:45.524Z,75237.63
2022-08-27T15:40:14.751Z,75257.47
2022-08-27T15:42:42.210Z,75283.31
2022-08-27T15:45:10.210Z,75303.16
2022-08-27T15:47:37.418Z,75334.97
2022-08-27T15:50:05.230Z,75338.94
2022-08-27T15:52:36.974Z,75358.78
2022-08-27T15:55:14.823Z,75350.84
2022-08-27T15:57:41.358Z,75356.81
2022-08-27T16:00:09.061Z,75358.78
2022-08-27T16:02:35.912Z,75366.75
2022-08-27T16:05:02.836Z,75368.72
2022-08-27T16:07:29.390Z,75374.69
2022-08-27T16:09:56.026Z,75382.63
2022-08-27T16:12:27.354Z,75372.69
2022-08-27T16:14:55.567Z,75380.66
2022-08-27T16:17:26.590Z,75394.56
2022-08-27T16:19:53.450Z,75392.56
2022-08-27T16:22:20.336Z,75390.56
2022-08-27T16:24:46.859Z,75392.56
2022-08-27T16:27:13.839Z,75392.56
2022-08-27T16:29:40.480Z,75396.53
2022-08-27T16:32:14.349Z,75402.50
2022-08-27T16:34:43.312Z,75426.34
2022-08-27T16:37:10.218Z,75420.38
2022-08-27T16:39:40.551Z,75414.41
2022-08-27T16:42:16.454Z,75414.41
2022-08-27T16:44:44.051Z,75446.19
2022-08-27T16:47:10.576Z,75442.22
2022-08-27T16:49:56.015Z,75454.16
2022-08-27T16:52:23.841Z,75462.09
2022-08-27T16:54:54.750Z,75468.06
2022-08-27T16:57:21.253Z,75462.09
2022-08-27T16:59:48.053Z,75483.94
2022-08-27T17:02:30.343Z,75485.94
2022-08-27T17:05:12.140Z,75491.88
2022-08-27T17:08:01.309Z,75507.78
2022-08-27T17:10:34.929Z,75511.75
2022-08-27T17:13:01.844Z,75529.63
2022-08-27T17:15:28.385Z,75553.47
2022-08-27T17:17:57.895Z,75549.50
2022-08-27T17:20:31.840Z,75563.41
2022-08-27T17:23:00.953Z,75565.41
2022-08-27T17:25:29.979Z,75559.44
2022-08-27T17:28:00.193Z,75583.28
2022-08-27T17:30:27.251Z,75589.22
2022-08-27T17:32:56.522Z,75597.19
2022-08-27T17:35:27.771Z,75597.19
2022-08-27T17:37:54.752Z,75591.22
2022-08-27T17:40:21.565Z,75605.13
2022-08-27T17:42:50.251Z,75605.13
2022-08-27T17:45:17.474Z,75615.06
2022-08-27T17:47:44.091Z,75619.03
2022-08-27T17:50:11.172Z,75625.00
2022-08-27T17:53:02.609Z,75625.00
2022-08-27T17:55:29.283Z,75623.00
2022-08-27T17:57:55.795Z,75628.97
2022-08-27T18:00:22.325Z,75636.91
2022-08-27T18:02:50.233Z,75646.84
2022-08-27T18:05:33.750Z,75650.81
2022-08-27T18:08:00.368Z,75658.75
2022-08-27T18:10:27.585Z,75660.75
2022-08-27T18:12:59.640Z,75676.66
2022-08-27T18:15:28.875Z,75678.63
2022-08-27T18:17:57.132Z,75692.53
2022-08-27T18:20:26.596Z,75692.53
2022-08-27T18:22:54.322Z,75702.47
2022-08-27T18:25:36.983Z,75704.47
2022-08-27T18:28:09.964Z,75728.31
2022-08-27T18:30:39.816Z,75730.28
2022-08-27T18:33:11.476Z,75748.16
2022-08-27T18:35:39.008Z,75746.19
2022-08-27T18:38:06.603Z,75754.13
2022-08-27T18:40:44.368Z,75764.06
2022-08-27T18:43:11.415Z,75760.09
2022-08-27T18:45:41.495Z,75764.06
2022-08-27T18:48:21.677Z,75772.00
2022-08-27T18:50:57.192Z,75775.97
2022-08-27T18:53:25.677Z,75779.94
2022-08-27T18:55:54.530Z,75791.88
2022-08-27T18:58:21.471Z,75793.84
2022-08-27T19:00:53.792Z,75797.84
2022-08-27T19:03:28.092Z,75797.84
2022-08-27T19:05:56.047Z,75805.78
2022-08-27T19:08:38.680Z,75811.75
2022-08-27T19:11:05.915Z,75813.72
2022-08-27T19:13:32.705Z,75817.69
2022-08-27T19:16:03.541Z,75825.66
2022-08-27T19:18:35.256Z,75823.66
2022-08-27T19:21:02.067Z,75813.72
2022-08-27T19:23:28.688Z,75819.69
2022-08-27T19:25:56.077Z,75823.66
2022-08-27T19:28:38.569Z,75831.59
2022-08-27T19:31:07.242Z,75827.63
2022-08-27T19:33:35.117Z,75835.59
2022-08-27T19:36:02.229Z,75845.50
2022-08-27T19:38:31.761Z,75841.53
2022-08-27T19:41:00.269Z,75855.44
2022-08-27T19:43:30.148Z,75847.50
2022-08-27T19:45:58.552Z,75857.44
2022-08-27T19:48:25.650Z,75859.41
2022-08-27T19:50:52.391Z,75861.41
2022-08-27T19:53:20.931Z,75861.41
2022-08-27T19:55:47.775Z,75865.38
2022-08-27T19:58:16.506Z,75869.34
2022-08-27T20:00:44.705Z,75863.41
2022-08-27T20:03:12.257Z,75867.38
2022-08-27T20:05:39.249Z,75867.38
2022-08-27T20:08:06.239Z,75867.38
2022-08-27T20:10:36.434Z,75879.28
2022-08-27T20:13:04.102Z,75869.34
2022-08-27T20:15:30.789Z,75875.31
2022-08-27T20:17:59.668Z,75877.31
2022-08-27T20:20:28.249Z,75883.25
2022-08-27T20:22:56.533Z,75879.28
2022-08-27T20:25:25.139Z,75873.31
2022-08-27T20:27:53.168Z,75879.28
2022-08-27T20:30:26.736Z,75873.31
2022-08-27T20:32:55.842Z,75887.22
2022-08-27T20:35:22.988Z,75887.22
2022-08-27T20:37:50.295Z,75899.16
2022-08-27T20:40:27.108Z,75905.13
2022-08-27T20:42:54.124Z,75907.09
2022-08-27T20:45:22.571Z,75909.09
2022-08-27T20:47:52.870Z,75919.03
2022-08-27T20:50:21.598Z,75909.09
2022-08-27T20:52:55.102Z,75919.03
2022-08-27T20:55:32.916Z,75921.00
2022-08-27T20:58:19.572Z,75921.00
2022-08-27T21:00:46.472Z,75930.94
2022-08-27T21:03:14.911Z,75926.97
2022-08-27T21:05:43.742Z,75925.00
2022-08-27T21:08:10.528Z,75928.97
2022-08-27T21:10:47.539Z,75926.97
2022-08-27T21:13:16.241Z,75925.00
2022-08-27T21:15:42.925Z,75946.84
2022-08-27T21:18:09.527Z,75936.91
2022-08-27T21:20:37.985Z,75938.91
2022-08-27T21:23:13.395Z,75934.91
2022-08-27T21:25:42.391Z,75936.91
2022-08-27T21:28:30.223Z,75934.91
2022-08-27T21:30:57.424Z,75938.91
2022-08-27T21:33:26.694Z,75932.94
2022-08-27T21:35:53.492Z,75940.88
2022-08-27T21:38:20.260Z,75946.84
2022-08-27T21:40:46.894Z,75946.84
2022-08-27T21:43:18.088Z,75936.91
2022-08-27T21:45:45.921Z,75936.91
2022-08-27T21:48:13.112Z,75940.88
2022-08-27T21:50:39.934Z,75946.84
2022-08-27T21:53:09.797Z,75936.91
2022-08-27T21:55:36.554Z,75938.91
2022-08-27T21:58:06.029Z,75944.84
2022-08-27T22:00:47.634Z,75940.88
2022-08-27T22:03:17.025Z,75944.84
2022-08-27T22:05:44.702Z,75940.88
2022-08-27T22:08:13.442Z,75936.91
2022-08-27T22:10:41.348Z,75932.94
2022-08-27T22:13:08.633Z,75946.84
2022-08-27T22:15:35.761Z,75950.81
2022-08-27T22:18:03.388Z,75956.78
2022-08-27T22:20:30.058Z,75952.81
2022-08-27T22:22:58.775Z,75954.78
2022-08-27T22:25:27.709Z,75966.72
2022-08-27T22:27:55.411Z,75966.72
2022-08-27T22:30:24.967Z,75968.69
2022-08-27T22:32:51.991Z,75958.75
2022-08-27T22:35:19.588Z,75968.69
2022-08-27T22:37:47.303Z,75968.69
2022-08-27T22:40:20.001Z,75970.69
2022-08-27T22:42:47.349Z,75974.66
2022-08-27T22:45:15.331Z,75968.69
2022-08-27T22:47:43.126Z,75964.72
2022-08-27T22:50:11.380Z,75962.75
2022-08-27T22:52:39.065Z,75958.75
2022-08-27T22:55:06.669Z,75972.66
2022-08-27T22:57:35.681Z,75958.75
2022-08-27T23:00:06.916Z,75968.69
2022-08-27T23:02:33.434Z,75976.66
2022-08-27T23:05:02.534Z,75966.72
2022-08-27T23:07:32.743Z,75970.69
2022-08-27T23:09:59.709Z,75978.63
2022-08-27T23:12:26.472Z,75982.59
2022-08-27T23:14:53.003Z,75988.56
2022-08-27T23:17:19.831Z,75982.59
2022-08-27T23:19:46.428Z,75980.63
2022-08-27T23:22:13.149Z,75984.59
2022-08-27T23:24:59.626Z,75990.56
2022-08-27T23:27:29.323Z,75990.56
2022-08-27T23:29:58.113Z,75982.59
2022-08-27T23:32:26.001Z,75978.63
2022-08-27T23:34:52.681Z,76004.47
2022-08-27T23:37:19.751Z,75992.53
2022-08-27T23:39:46.531Z,75994.53
2022-08-27T23:42:16.085Z,75998.50
2022-08-27T23:44:43.071Z,76000.47
2022-08-27T23:47:09.674Z,76002.47
2022-08-27T23:49:36.216Z,75996.50
2022-08-27T23:52:03.985Z,76008.44
2022-08-27T23:54:30.578Z,76024.31
2022-08-27T23:56:57.307Z,76022.34
2022-08-27T23:59:26.622Z,76036.25
